createdAt,value
2022-12-23T00:01:06.061Z,9.35
2022-12-23T00:03:33.139Z,9.38
2022-12-23T00:06:00.824Z,9.41
2022-12-23T00:08:27.681Z,9.44
2022-12-23T00:10:56.789Z,9.43
2022-12-23T00:13:42.125Z,9.41
2022-12-23T00:16:13.730Z,9.42
2022-12-23T00:18:40.871Z,9.40
2022-12-23T00:21:13.771Z,9.43
2022-12-23T00:23:42.947Z,9.47
2022-12-23T00:26:24.007Z,9.51
2022-12-23T00:28:50.900Z,9.54
2022-12-23T00:31:19.396Z,9.56
2022-12-23T00:33:48.070Z,9.58
2022-12-23T00:36:18.261Z,9.58
2022-12-23T00:39:03.604Z,9.60
2022-12-23T00:41:48.885Z,9.57
2022-12-23T00:44:15.583Z,9.62
2022-12-23T00:46:42.034Z,9.64
2022-12-23T00:49:29.823Z,9.68
2022-12-23T00:51:56.182Z,9.69
2022-12-23T00:54:22.728Z,9.71
2022-12-23T00:56:49.092Z,9.74
2022-12-23T00:59:15.592Z,9.74
2022-12-23T01:02:00.764Z,9.74
2022-12-23T01:04:45.887Z,9.76
2022-12-23T01:07:12.368Z,9.77
2022-12-23T01:09:38.905Z,9.81
2022-12-23T01:12:05.568Z,9.83
2022-12-23T01:14:32.305Z,9.86
2022-12-23T01:16:58.735Z,9.95
2022-12-23T01:19:25.264Z,10.01
2022-12-23T01:21:51.685Z,10.00
2022-12-23T01:24:18.095Z,9.98
2022-12-23T01:26:44.511Z,9.99
2022-12-23T01:29:11.489Z,10.05
2022-12-23T01:31:37.988Z,10.06
2022-12-23T01:34:04.434Z,10.08
2022-12-23T01:36:30.938Z,10.10
2022-12-23T01:38:57.392Z,10.12
2022-12-23T01:41:45.590Z,10.17
2022-12-23T01:44:45.704Z,10.22
2022-12-23T01:47:17.185Z,10.24
2022-12-23T01:49:43.820Z,10.27
2022-12-23T01:52:11.809Z,10.27
2022-12-23T01:54:39.234Z,10.27
2022-12-23T01:57:05.835Z,10.29
2022-12-23T01:59:50.877Z,10.31
2022-12-23T02:02:35.920Z,10.36
2022-12-23T02:05:02.787Z,10.36
2022-12-23T02:07:47.877Z,10.38
2022-12-23T02:10:14.303Z,10.38
2022-12-23T02:13:16.083Z,10.42
2022-12-23T02:16:13.758Z,10.40
2022-12-23T02:18:56.574Z,10.40
2022-12-23T02:22:00.420Z,10.41
2022-12-23T02:24:38.977Z,10.41
2022-12-23T02:27:10.223Z,10.43
2022-12-23T02:30:11.765Z,10.41
2022-12-23T02:33:02.919Z,10.45
2022-12-23T02:35:40.650Z,10.46
2022-12-23T02:38:15.733Z,10.49
2022-12-23T02:41:27.418Z,10.50
2022-12-23T02:44:11.901Z,10.51
2022-12-23T02:46:45.645Z,10.49
2022-12-23T02:49:18.537Z,10.50
2022-12-23T02:51:50.264Z,10.50
2022-12-23T02:54:24.802Z,10.50
2022-12-23T02:56:53.943Z,10.50
2022-12-23T02:59:28.036Z,10.50
2022-12-23T03:01:55.355Z,10.47
2022-12-23T03:04:21.873Z,10.47
2022-12-23T03:07:06.960Z,10.46
2022-12-23T03:09:49.664Z,10.42
2022-12-23T03:12:30.116Z,10.39
2022-12-23T03:15:40.825Z,10.37
2022-12-23T03:18:31.356Z,10.38
2022-12-23T03:21:12.141Z,10.39
2022-12-23T03:24:03.740Z,10.36
2022-12-23T03:30:47.824Z,10.30
2022-12-23T03:33:24.878Z,10.29
2022-12-23T03:36:17.211Z,10.28
2022-12-23T03:38:46.749Z,10.26
2022-12-23T03:41:35.002Z,10.26
2022-12-23T03:44:12.830Z,10.25
2022-12-23T03:47:25.664Z,10.22
2022-12-23T03:50:04.202Z,10.21
2022-12-23T03:52:48.636Z,10.22
2022-12-23T03:55:36.416Z,10.20
2022-12-23T03:58:40.109Z,10.23
2022-12-23T04:01:19.384Z,10.25
2022-12-23T04:04:14.657Z,10.24
2022-12-23T04:06:55.255Z,10.25
2022-12-23T04:09:27.456Z,10.25
2022-12-23T04:12:00.678Z,10.21
2022-12-23T04:14:37.476Z,10.15
2022-12-23T04:17:17.948Z,10.10
2022-12-23T04:19:51.738Z,10.09
2022-12-23T04:22:22.654Z,10.07
2022-12-23T04:25:08.491Z,10.03
2022-12-23T04:27:44.144Z,10.00
2022-12-23T04:30:18.647Z,10.00
2022-12-23T04:33:05.697Z,10.01
2022-12-23T04:35:54.519Z,10.04
2022-12-23T04:38:33.676Z,10.03
2022-12-23T04:41:30.075Z,10.01
2022-12-23T04:44:00.237Z,9.99
2022-12-23T04:46:38.666Z,9.99
2022-12-23T04:49:22.383Z,9.99
2022-12-23T04:52:02.182Z,10.03
2022-12-23T04:54:45.537Z,10.05
2022-12-23T05:00:47.175Z,10.17
2022-12-23T05:03:19.343Z,10.23
2022-12-23T05:06:21.207Z,10.29
2022-12-23T05:08:55.137Z,10.44
2022-12-23T05:11:41.882Z,10.56
2022-12-23T05:14:18.733Z,10.60
2022-12-23T05:20:00.392Z,10.64
2022-12-23T05:25:40.618Z,10.69
2022-12-23T05:28:49.934Z,10.74
2022-12-23T05:31:26.063Z,10.75
2022-12-23T05:34:05.954Z,10.79
2022-12-23T05:36:43.770Z,10.80
2022-12-23T05:40:21.492Z,10.79
2022-12-23T05:46:55.144Z,10.74
2022-12-23T05:50:04.539Z,10.76
2022-12-23T05:56:10.500Z,10.85
2022-12-23T05:58:43.841Z,10.85
2022-12-23T06:02:03.568Z,10.93
2022-12-23T06:04:36.618Z,10.92
2022-12-23T06:07:11.121Z,10.94
2022-12-23T06:09:52.266Z,10.98
2022-12-23T06:12:40.814Z,11.00
2022-12-23T06:15:16.497Z,10.98
2022-12-23T06:18:12.793Z,10.93
2022-12-23T06:21:43.365Z,10.91
2022-12-23T06:24:43.245Z,10.93
2022-12-23T06:27:28.690Z,10.93
2022-12-23T06:30:48.436Z,10.88
2022-12-23T06:33:21.778Z,10.79
2022-12-23T06:45:19.164Z,10.56
2022-12-23T06:47:45.718Z,10.57
2022-12-23T06:50:12.200Z,10.58
2022-12-23T06:52:38.605Z,10.57
2022-12-23T06:55:05.547Z,10.57
2022-12-23T06:57:32.007Z,10.56
2022-12-23T06:59:58.430Z,10.54
2022-12-23T07:02:24.946Z,10.51
2022-12-23T07:04:51.496Z,10.47
2022-12-23T07:07:18.034Z,10.45
2022-12-23T07:09:44.474Z,10.44
2022-12-23T07:12:11.297Z,10.43
2022-12-23T07:14:37.709Z,10.40
2022-12-23T07:17:04.219Z,10.38
2022-12-23T07:19:30.725Z,10.35
2022-12-23T07:21:57.118Z,10.33
2022-12-23T07:24:23.508Z,10.29
2022-12-23T07:26:50.900Z,10.26
2022-12-23T07:29:17.383Z,10.24
2022-12-23T07:31:43.880Z,10.24
2022-12-23T07:34:10.362Z,10.22
2022-12-23T07:36:36.842Z,10.22
2022-12-23T07:39:03.524Z,10.20
2022-12-23T07:41:29.963Z,10.21
2022-12-23T07:43:56.352Z,10.18
2022-12-23T07:46:22.787Z,10.18
2022-12-23T07:48:49.191Z,10.18
2022-12-23T07:51:15.831Z,10.19
2022-12-23T07:53:42.246Z,10.23
2022-12-23T07:56:08.791Z,10.26
2022-12-23T07:58:35.168Z,10.26
2022-12-23T08:01:03.718Z,10.28
2022-12-23T08:03:30.502Z,10.28
2022-12-23T08:06:15.204Z,10.28
2022-12-23T08:08:44.024Z,10.28
2022-12-23T08:11:11.904Z,10.31
2022-12-23T08:13:40.481Z,10.33
2022-12-23T08:16:07.721Z,10.33
2022-12-23T08:18:37.112Z,10.38
2022-12-23T08:21:04.812Z,10.39
2022-12-23T08:23:32.093Z,10.39
2022-12-23T08:26:07.859Z,10.40
2022-12-23T08:28:35.871Z,10.42
2022-12-23T08:31:07.296Z,10.44
2022-12-23T08:33:36.330Z,10.45
2022-12-23T08:36:03.246Z,10.46
2022-12-23T08:38:29.764Z,10.48
2022-12-23T08:40:56.455Z,10.51
2022-12-23T08:43:22.934Z,10.56
2022-12-23T08:45:49.627Z,10.56
2022-12-23T08:48:16.262Z,10.56
2022-12-23T08:50:44.670Z,10.59
2022-12-23T08:53:12.036Z,10.61
2022-12-23T08:55:44.339Z,10.65
2022-12-23T08:58:11.888Z,10.67
2022-12-23T09:00:38.949Z,10.67
2022-12-23T09:03:05.724Z,10.72
2022-12-23T09:05:33.047Z,10.75
2022-12-23T09:07:59.977Z,10.77
2022-12-23T09:10:26.518Z,10.76
2022-12-23T09:12:52.934Z,10.76
2022-12-23T09:15:19.568Z,10.76
2022-12-23T09:17:46.037Z,10.76
2022-12-23T09:20:12.785Z,10.74
2022-12-23T09:22:39.868Z,10.76
2022-12-23T09:25:06.377Z,10.75
2022-12-23T09:27:32.754Z,10.76
2022-12-23T09:29:59.202Z,10.77
2022-12-23T09:32:25.629Z,10.79
2022-12-23T09:34:52.071Z,10.79
2022-12-23T09:37:18.658Z,10.80
2022-12-23T09:39:45.167Z,10.80
2022-12-23T09:42:25.275Z,10.82
2022-12-23T09:45:20.975Z,10.83
2022-12-23T09:47:48.253Z,10.85
2022-12-23T09:50:23.548Z,10.87
2022-12-23T09:53:08.474Z,10.89
2022-12-23T09:55:54.057Z,10.92
2022-12-23T09:58:25.858Z,10.94
2022-12-23T10:01:05.310Z,10.95
2022-12-23T10:03:57.956Z,10.96
2022-12-23T10:06:28.645Z,10.98
2022-12-23T10:09:02.448Z,10.99
2022-12-23T10:11:33.628Z,11.00
2022-12-23T10:14:14.677Z,11.00
2022-12-23T10:16:47.100Z,11.00
2022-12-23T10:19:21.054Z,11.01
2022-12-23T10:21:52.389Z,11.00
2022-12-23T10:24:21.413Z,11.01
2022-12-23T10:27:01.259Z,11.01
2022-12-23T10:29:32.405Z,11.01
2022-12-23T10:32:17.120Z,11.04
2022-12-23T10:35:41.080Z,11.04
2022-12-23T10:38:40.731Z,11.06
2022-12-23T10:41:30.444Z,11.08
2022-12-23T10:44:07.062Z,11.09
2022-12-23T10:46:52.728Z,11.11
2022-12-23T10:49:52.960Z,11.11
2022-12-23T10:52:27.407Z,11.12
2022-12-23T10:54:53.864Z,11.12
2022-12-23T10:57:20.785Z,11.13
2022-12-23T10:59:47.368Z,11.14
2022-12-23T11:02:14.179Z,11.15
2022-12-23T11:04:45.339Z,11.15
2022-12-23T11:07:44.003Z,11.13
2022-12-23T11:10:32.975Z,11.12
2022-12-23T11:13:00.649Z,11.12
2022-12-23T11:15:28.903Z,11.11
2022-12-23T11:18:16.381Z,11.12
2022-12-23T11:20:45.713Z,11.11
2022-12-23T11:23:35.009Z,11.12
2022-12-23T11:26:06.156Z,11.12
2022-12-23T11:28:35.436Z,11.11
2022-12-23T11:31:14.393Z,11.11
2022-12-23T11:33:59.766Z,11.12
2022-12-23T11:36:28.810Z,11.13
2022-12-23T11:39:10.374Z,11.14
2022-12-23T11:41:40.430Z,11.17
2022-12-23T11:44:24.124Z,11.20
2022-12-23T11:46:50.723Z,11.22
2022-12-23T11:49:22.635Z,11.24
2022-12-23T11:52:01.798Z,11.29
2022-12-23T11:54:29.266Z,11.29
2022-12-23T11:56:56.879Z,11.28
2022-12-23T11:59:28.683Z,11.28
2022-12-23T12:01:58.816Z,11.30
2022-12-23T12:04:26.770Z,11.31
2022-12-23T12:06:56.674Z,11.31
2022-12-23T12:09:24.726Z,11.32
2022-12-23T12:12:07.133Z,11.36
2022-12-23T12:14:42.921Z,11.38
2022-12-23T12:17:32.273Z,11.41
2022-12-23T12:20:11.992Z,11.42
2022-12-23T12:22:44.347Z,11.41
2022-12-23T12:25:19.332Z,11.40
2022-12-23T12:27:54.377Z,11.40
2022-12-23T12:30:21.569Z,11.41
2022-12-23T12:32:48.004Z,11.42
2022-12-23T12:35:37.656Z,11.41
2022-12-23T12:38:17.902Z,11.42
2022-12-23T12:40:51.081Z,11.41
2022-12-23T12:43:40.156Z,11.42
2022-12-23T12:46:06.594Z,11.41
2022-12-23T12:48:47.952Z,11.41
2022-12-23T12:51:26.006Z,11.42
2022-12-23T12:54:15.164Z,11.45
2022-12-23T12:56:48.649Z,11.45
2022-12-23T12:59:19.740Z,11.45
2022-12-23T13:02:13.381Z,11.42
2022-12-23T13:05:00.878Z,11.40
2022-12-23T13:07:52.527Z,11.40
2022-12-23T13:10:34.690Z,11.40
2022-12-23T13:13:07.047Z,11.41
2022-12-23T13:15:47.225Z,11.42
2022-12-23T13:18:27.725Z,11.42
2022-12-23T13:21:03.181Z,11.46
2022-12-23T13:23:46.654Z,11.47
2022-12-23T13:26:23.511Z,11.47
2022-12-23T13:29:21.490Z,11.48
2022-12-23T13:32:02.801Z,11.49
2022-12-23T13:34:53.156Z,11.48
2022-12-23T13:37:36.094Z,11.48
2022-12-23T13:40:26.267Z,11.49
2022-12-23T13:42:56.791Z,11.50
2022-12-23T13:45:27.941Z,11.51
2022-12-23T13:48:15.155Z,11.51
2022-12-23T13:50:57.083Z,11.49
2022-12-23T13:53:47.385Z,11.50
2022-12-23T13:56:24.056Z,11.55
2022-12-23T13:58:51.664Z,11.55
2022-12-23T14:01:18.037Z,11.54
2022-12-23T14:03:44.790Z,11.55
2022-12-23T14:06:23.567Z,11.58
2022-12-23T14:08:51.217Z,11.61
2022-12-23T14:11:31.016Z,11.62
2022-12-23T14:14:02.186Z,11.61
2022-12-23T14:17:16.233Z,11.61
2022-12-23T14:20:23.598Z,11.61
2022-12-23T14:23:07.093Z,11.67
2022-12-23T14:25:59.608Z,11.70
2022-12-23T14:28:50.448Z,11.69
2022-12-23T14:31:53.854Z,11.70
2022-12-23T14:34:20.272Z,11.71
2022-12-23T14:37:20.588Z,11.71
2022-12-23T14:39:47.828Z,11.67
2022-12-23T14:42:34.157Z,11.66
2022-12-23T14:45:35.371Z,11.67
2022-12-23T14:48:23.668Z,11.65
2022-12-23T14:51:00.735Z,11.65
2022-12-23T14:53:32.261Z,11.67
2022-12-23T14:56:32.559Z,11.69
2022-12-23T14:59:23.686Z,11.67
2022-12-23T15:01:53.853Z,11.69
2022-12-23T15:04:34.033Z,11.71
2022-12-23T15:07:06.121Z,11.74
2022-12-23T15:09:47.280Z,11.75
2022-12-23T15:12:18.657Z,11.76
2022-12-23T15:14:50.885Z,11.76
2022-12-23T15:17:32.880Z,11.77
2022-12-23T15:20:18.461Z,11.79
2022-12-23T15:22:45.794Z,11.76
2022-12-23T15:25:39.265Z,11.81
2022-12-23T15:28:06.192Z,11.84
2022-12-23T15:30:36.456Z,11.88
2022-12-23T15:33:35.419Z,11.93
2022-12-23T15:36:39.189Z,11.98
2022-12-23T15:39:33.461Z,11.99
2022-12-23T15:42:17.397Z,12.02
2022-12-23T15:44:47.477Z,12.05
2022-12-23T15:47:50.733Z,12.04
2022-12-23T15:51:12.849Z,12.04
2022-12-23T15:53:58.049Z,12.08
2022-12-23T16:00:29.332Z,12.10
2022-12-23T16:03:08.943Z,12.10
2022-12-23T16:06:08.259Z,12.14
2022-12-23T16:09:08.308Z,12.21
2022-12-23T16:15:56.647Z,12.25
2022-12-23T16:21:49.283Z,12.23
2022-12-23T16:24:53.964Z,12.19
2022-12-23T16:33:58.341Z,12.18
2022-12-23T16:36:31.247Z,12.22
2022-12-23T16:39:24.183Z,12.23
2022-12-23T16:41:59.761Z,12.23
2022-12-23T16:44:35.785Z,12.24
2022-12-23T16:47:20.028Z,12.24
2022-12-23T16:50:11.982Z,12.25
2022-12-23T16:52:45.805Z,12.27
2022-12-23T16:55:22.572Z,12.30
2022-12-23T17:02:29.051Z,12.26
2022-12-23T17:05:14.713Z,12.22
2022-12-23T17:08:08.768Z,12.20
2022-12-23T17:10:59.067Z,12.14
2022-12-23T17:14:15.257Z,12.09
2022-12-23T17:20:51.931Z,12.03
2022-12-23T17:23:48.358Z,12.08
2022-12-23T17:26:25.490Z,12.09
2022-12-23T17:29:04.488Z,12.11
2022-12-23T17:31:50.908Z,12.09
2022-12-23T17:34:39.010Z,12.05
2022-12-23T17:37:29.013Z,12.02
2022-12-23T17:43:38.501Z,12.01
2022-12-23T17:46:20.163Z,12.08
2022-12-23T17:49:06.358Z,12.08
2022-12-23T17:51:43.893Z,12.09
2022-12-23T17:54:47.103Z,12.09
2022-12-23T18:02:00.542Z,12.13
2022-12-23T18:04:42.105Z,12.11
2022-12-23T18:10:13.322Z,12.00
2022-12-23T18:13:04.835Z,11.97
2022-12-23T18:15:43.705Z,12.01
2022-12-23T18:21:53.647Z,11.92
2022-12-23T18:27:41.741Z,11.86
2022-12-23T18:33:31.190Z,11.83
2022-12-23T18:36:38.593Z,11.88
2022-12-23T18:39:22.724Z,11.94
2022-12-23T18:43:30.069Z,12.00
2022-12-23T18:50:30.654Z,12.11
2022-12-23T18:56:49.348Z,12.07
2022-12-23T18:59:48.764Z,12.07
2022-12-23T19:02:24.952Z,12.06
2022-12-23T19:05:11.379Z,12.04
2022-12-23T19:08:03.608Z,12.06
2022-12-23T19:13:04.910Z,12.11
2022-12-23T19:15:31.859Z,12.15
2022-12-23T19:17:58.251Z,12.16
2022-12-23T19:20:24.737Z,12.18
2022-12-23T19:22:51.085Z,12.16
2022-12-23T19:25:18.812Z,12.20
2022-12-23T19:27:45.986Z,12.23
2022-12-23T19:30:16.321Z,12.25
2022-12-23T19:32:43.248Z,12.24
2022-12-23T19:35:14.710Z,12.28
2022-12-23T19:37:42.079Z,12.25
2022-12-23T19:40:09.337Z,12.21
2022-12-23T19:42:39.409Z,12.14
2022-12-23T19:45:08.742Z,12.11
2022-12-23T19:47:35.822Z,12.07
2022-12-23T19:50:02.396Z,12.05
2022-12-23T19:52:28.789Z,12.04
2022-12-23T19:54:55.359Z,12.02
2022-12-23T19:57:21.982Z,11.97
2022-12-23T19:59:48.438Z,11.95
2022-12-23T20:02:16.046Z,11.90
2022-12-23T20:04:43.236Z,11.86
2022-12-23T20:07:10.333Z,11.82
2022-12-23T20:09:37.009Z,11.81
2022-12-23T20:12:03.974Z,11.79
2022-12-23T20:14:34.075Z,11.87
2022-12-23T20:17:00.903Z,11.93
2022-12-23T20:19:27.640Z,11.92
2022-12-23T20:21:54.075Z,11.93
2022-12-23T20:24:20.497Z,11.96
2022-12-23T20:26:47.488Z,12.04
2022-12-23T20:29:14.355Z,12.15
2022-12-23T20:31:41.390Z,12.28
2022-12-23T20:34:10.900Z,12.31
2022-12-23T20:36:38.207Z,12.29
2022-12-23T20:39:05.084Z,12.25
2022-12-23T20:41:32.917Z,12.25
2022-12-23T20:46:46.473Z,12.40
2022-12-23T20:49:13.076Z,12.47
2022-12-23T20:51:39.453Z,12.49
2022-12-23T20:54:05.865Z,12.50
2022-12-23T20:56:32.317Z,12.50
2022-12-23T20:59:00.134Z,12.44
2022-12-23T21:01:33.321Z,12.33
2022-12-23T21:04:02.350Z,12.31
2022-12-23T21:06:30.814Z,12.29
2022-12-23T21:08:59.428Z,12.22
2022-12-23T21:11:30.675Z,12.13
2022-12-23T21:14:01.206Z,12.06
2022-12-23T21:16:33.413Z,12.06
2022-12-23T21:18:59.977Z,12.04
2022-12-23T21:21:27.780Z,12.06
2022-12-23T21:23:55.903Z,12.05
2022-12-23T21:26:24.689Z,12.01
2022-12-23T21:28:52.468Z,11.98
2022-12-23T21:31:21.678Z,11.94
2022-12-23T21:33:50.100Z,11.92
2022-12-23T21:36:20.494Z,11.90
2022-12-23T21:38:48.717Z,11.91
2022-12-23T21:41:20.131Z,11.84
2022-12-23T21:43:46.825Z,11.81
2022-12-23T21:46:16.077Z,11.84
2022-12-23T21:48:42.840Z,11.83
2022-12-23T21:51:13.517Z,11.84
2022-12-23T21:53:40.840Z,11.85
2022-12-23T21:56:13.292Z,11.83
2022-12-23T21:58:40.545Z,11.82
2022-12-23T22:01:13.388Z,11.77
2022-12-23T22:03:40.227Z,11.74
2022-12-23T22:06:15.379Z,11.75
2022-12-23T22:08:42.849Z,11.75
2022-12-23T22:11:18.393Z,11.73
2022-12-23T22:13:45.337Z,11.77
2022-12-23T22:16:14.072Z,11.83
2022-12-23T22:18:41.005Z,11.85
2022-12-23T22:21:09.604Z,11.84
2022-12-23T22:23:37.186Z,11.85
2022-12-23T22:26:04.686Z,11.89
2022-12-23T22:28:32.619Z,11.86
2022-12-23T22:31:04.122Z,11.83
2022-12-23T22:33:31.615Z,11.77
2022-12-23T22:35:58.247Z,11.72
2022-12-23T22:38:26.216Z,11.68
2022-12-23T22:40:53.389Z,11.61
2022-12-23T22:43:20.587Z,11.55
2022-12-23T22:45:47.281Z,11.46
2022-12-23T22:48:13.819Z,11.40
2022-12-23T22:50:40.235Z,11.33
2022-12-23T22:53:06.827Z,11.31
2022-12-23T22:55:33.273Z,11.28
2022-12-23T22:57:59.660Z,11.25
2022-12-23T23:00:26.106Z,11.23
2022-12-23T23:02:52.541Z,11.20
2022-12-23T23:05:19.703Z,11.14
2022-12-23T23:07:46.148Z,11.15
2022-12-23T23:10:12.615Z,11.19
2022-12-23T23:12:39.027Z,11.20
2022-12-23T23:15:05.923Z,11.21
2022-12-23T23:17:32.352Z,11.20
2022-12-23T23:19:58.857Z,11.16
2022-12-23T23:22:25.447Z,11.14
2022-12-23T23:24:52.508Z,11.11
2022-12-23T23:27:19.501Z,11.15
2022-12-23T23:29:45.976Z,11.23
2022-12-23T23:32:12.576Z,11.33
2022-12-23T23:34:40.524Z,11.35
2022-12-23T23:37:06.906Z,11.33
2022-12-23T23:39:33.286Z,11.32
2022-12-23T23:41:59.673Z,11.32
2022-12-23T23:44:26.123Z,11.26
2022-12-23T23:46:52.565Z,11.22
2022-12-23T23:49:20.703Z,11.20
2022-12-23T23:51:47.172Z,11.15
2022-12-23T23:54:13.556Z,11.07
2022-12-23T23:56:40.069Z,11.05
2022-12-23T23:59:07.942Z,10.99
